createdAt,value
2022-08-30T00:01:33.851Z,76.70
2022-08-30T00:04:02.855Z,75.20
2022-08-30T00:06:31.027Z,75.00
2022-08-30T00:08:59.877Z,76.40
2022-08-30T00:11:29.094Z,76.50
2022-08-30T00:13:58.242Z,76.20
2022-08-30T00:16:26.828Z,76.20
2022-08-30T00:18:55.201Z,76.30
2022-08-30T00:21:23.781Z,75.60
2022-08-30T00:23:51.309Z,76.30
2022-08-30T00:26:20.001Z,77.50
2022-08-30T00:28:47.538Z,77.10
2022-08-30T00:31:15.703Z,77.50
2022-08-30T00:33:43.642Z,76.80
2022-08-30T00:36:11.094Z,76.60
2022-08-30T00:38:38.511Z,77.40
2022-08-30T00:41:06.012Z,78.00
2022-08-30T00:43:36.659Z,77.00
2022-08-30T00:46:08.368Z,76.80
2022-08-30T00:48:42.899Z,76.30
2022-08-30T00:51:13.252Z,76.70
2022-08-30T00:53:47.732Z,76.30
2022-08-30T00:56:17.993Z,76.90
2022-08-30T00:58:50.583Z,76.40
2022-08-30T01:01:19.269Z,76.50
2022-08-30T01:03:47.264Z,76.70
2022-08-30T01:06:15.812Z,77.00
2022-08-30T01:08:45.321Z,76.70
2022-08-30T01:11:15.359Z,77.10
2022-08-30T01:13:43.965Z,77.20
2022-08-30T01:16:11.627Z,77.50
2022-08-30T01:18:39.619Z,78.50
2022-08-30T01:21:22.213Z,78.30
2022-08-30T01:23:53.685Z,77.20
2022-08-30T01:26:22.276Z,77.20
2022-08-30T01:28:54.916Z,77.60
2022-08-30T01:31:22.855Z,77.90
2022-08-30T01:33:51.193Z,79.30
2022-08-30T01:36:20.125Z,79.60
2022-08-30T01:38:50.896Z,77.70
2022-08-30T01:41:36.889Z,78.10
2022-08-30T01:44:11.593Z,78.50
2022-08-30T01:46:42.990Z,77.00
2022-08-30T01:49:13.297Z,78.10
2022-08-30T01:51:41.484Z,78.40
2022-08-30T01:54:09.909Z,79.20
2022-08-30T01:56:37.727Z,78.20
2022-08-30T01:59:06.084Z,79.10
2022-08-30T02:01:37.163Z,78.00
2022-08-30T02:04:05.571Z,78.80
2022-08-30T02:06:33.190Z,78.50
2022-08-30T02:09:00.829Z,80.90
2022-08-30T02:11:28.324Z,80.30
2022-08-30T02:13:55.943Z,80.00
2022-08-30T02:16:24.620Z,78.70
2022-08-30T02:18:53.473Z,78.50
2022-08-30T02:21:21.618Z,78.80
2022-08-30T02:23:49.389Z,78.90
2022-08-30T02:26:17.952Z,78.40
2022-08-30T02:28:50.139Z,78.60
2022-08-30T02:31:22.222Z,78.80
2022-08-30T02:33:52.319Z,78.50
2022-08-30T02:36:21.725Z,78.70
2022-08-30T02:38:50.483Z,79.00
2022-08-30T02:41:19.087Z,78.50
2022-08-30T02:43:46.956Z,78.30
2022-08-30T02:46:14.801Z,78.50
2022-08-30T02:48:42.707Z,79.10
2022-08-30T02:51:13.083Z,78.30
2022-08-30T02:53:44.045Z,79.20
2022-08-30T02:56:13.364Z,78.90
2022-08-30T02:58:42.585Z,79.10
2022-08-30T03:01:13.099Z,78.70
2022-08-30T03:03:42.343Z,79.40
2022-08-30T03:06:10.574Z,78.90
2022-08-30T03:08:39.643Z,81.50
2022-08-30T03:11:07.345Z,80.80
2022-08-30T03:13:35.182Z,81.20
2022-08-30T03:16:02.749Z,80.70
2022-08-30T03:18:30.298Z,81.20
2022-08-30T03:20:57.745Z,81.00
2022-08-30T03:23:25.302Z,80.30
2022-08-30T03:25:53.606Z,81.80
2022-08-30T03:28:21.246Z,81.60
2022-08-30T03:30:48.833Z,80.60
2022-08-30T03:33:18.120Z,80.70
2022-08-30T03:35:46.148Z,81.30
2022-08-30T03:38:13.599Z,81.40
2022-08-30T03:40:41.432Z,81.00
2022-08-30T03:43:09.608Z,80.60
2022-08-30T03:45:37.296Z,82.00
2022-08-30T03:48:04.890Z,82.20
2022-08-30T03:50:33.106Z,80.90
2022-08-30T03:53:01.493Z,82.30
2022-08-30T03:55:30.664Z,80.90
2022-08-30T03:57:58.519Z,81.10
2022-08-30T04:00:26.528Z,81.30
2022-08-30T04:02:54.159Z,79.80
2022-08-30T04:05:23.185Z,84.30
2022-08-30T04:07:50.817Z,79.90
2022-08-30T04:10:21.239Z,82.80
2022-08-30T04:12:50.209Z,83.20
2022-08-30T04:15:18.837Z,81.00
2022-08-30T04:17:47.440Z,80.70
2022-08-30T04:20:15.487Z,81.80
2022-08-30T04:22:43.309Z,82.10
2022-08-30T04:25:15.357Z,83.60
2022-08-30T04:27:45.747Z,80.90
2022-08-30T04:30:21.026Z,81.10
2022-08-30T04:32:48.761Z,84.40
2022-08-30T04:35:27.665Z,85.00
2022-08-30T04:37:55.430Z,82.20
2022-08-30T04:40:23.269Z,84.20
2022-08-30T04:42:54.387Z,83.70
2022-08-30T04:45:23.308Z,84.50
2022-08-30T04:47:50.992Z,82.10
2022-08-30T04:50:20.952Z,84.90
2022-08-30T04:52:48.734Z,82.90
2022-08-30T04:55:20.388Z,87.80
2022-08-30T04:57:48.445Z,82.00
2022-08-30T05:00:16.859Z,84.40
2022-08-30T05:02:44.635Z,82.00
2022-08-30T07:23:17.423Z,80.00
2022-08-30T07:31:41.367Z,75.60
2022-08-30T07:59:19.484Z,72.10
2022-08-30T09:10:49.353Z,61.10
2022-08-30T09:37:12.179Z,56.70
2022-08-30T09:40:28.361Z,55.90
2022-08-30T09:43:33.188Z,56.30
2022-08-30T09:46:43.353Z,58.20
2022-08-30T09:49:33.434Z,55.40
2022-08-30T10:01:39.780Z,54.20
2022-08-30T10:04:16.829Z,53.80
2022-08-30T10:07:07.728Z,53.20
2022-08-30T10:09:54.463Z,53.30
2022-08-30T10:12:29.999Z,52.50
2022-08-30T10:15:15.196Z,55.00
2022-08-30T10:17:49.399Z,53.00
2022-08-30T10:20:30.506Z,53.90
2022-08-30T10:23:12.876Z,51.40
2022-08-30T10:25:50.779Z,52.20
2022-08-30T10:29:00.155Z,53.30
2022-08-30T10:31:35.148Z,50.80
2022-08-30T10:34:14.836Z,50.60
2022-08-30T10:37:13.678Z,50.90
2022-08-30T10:39:53.463Z,49.70
2022-08-30T10:42:42.590Z,51.30
2022-08-30T10:45:18.935Z,52.90
2022-08-30T10:48:34.958Z,50.10
2022-08-30T10:51:30.700Z,48.50
2022-08-30T10:54:20.150Z,47.90
2022-08-30T10:56:54.331Z,49.20
2022-08-30T11:00:20.114Z,49.00
2022-08-30T11:06:59.984Z,47.70
2022-08-30T11:18:21.599Z,47.60
2022-08-30T11:22:39.242Z,50.00
2022-08-30T11:25:39.901Z,47.70
2022-08-30T11:28:12.191Z,46.90
2022-08-30T11:31:58.155Z,48.20
2022-08-30T11:39:29.571Z,46.70
2022-08-30T11:42:46.376Z,46.80
2022-08-30T11:48:57.657Z,46.70
2022-08-30T11:52:27.505Z,46.40
2022-08-30T11:55:00.299Z,46.90
2022-08-30T11:57:51.671Z,48.40
2022-08-30T12:01:41.862Z,45.90
2022-08-30T12:04:29.408Z,46.20
2022-08-30T12:10:44.033Z,48.40
2022-08-30T12:14:17.235Z,47.00
2022-08-30T12:17:12.811Z,45.80
2022-08-30T12:19:54.323Z,47.50
2022-08-30T12:22:54.420Z,46.90
2022-08-30T12:25:47.594Z,47.60
2022-08-30T12:28:36.579Z,45.60
2022-08-30T12:31:31.156Z,47.10
2022-08-30T12:34:03.809Z,46.70
2022-08-30T12:40:58.093Z,46.00
2022-08-30T12:44:09.230Z,44.90
2022-08-30T12:54:31.211Z,44.60
2022-08-30T12:57:25.333Z,45.20
2022-08-30T12:59:59.806Z,45.70
2022-08-30T13:03:53.084Z,45.10
2022-08-30T13:15:19.917Z,44.00
2022-08-30T13:17:47.922Z,43.70
2022-08-30T13:20:16.173Z,45.60
2022-08-30T13:23:34.597Z,44.90
2022-08-30T13:26:02.463Z,43.40
2022-08-30T13:28:54.465Z,46.90
2022-08-30T13:32:14.204Z,44.40
2022-08-30T13:34:44.517Z,42.90
2022-08-30T13:46:09.210Z,41.70
2022-08-30T13:48:40.799Z,44.50
2022-08-30T13:51:11.923Z,44.80
2022-08-30T13:54:12.249Z,45.50
2022-08-30T13:56:49.361Z,45.70
2022-08-30T13:59:38.643Z,45.70
2022-08-30T14:02:07.932Z,42.10
2022-08-30T14:04:35.954Z,42.40
2022-08-30T14:07:16.642Z,44.70
2022-08-30T14:09:47.745Z,42.70
2022-08-30T14:12:52.274Z,43.00
2022-08-30T14:15:07.424Z,41.30
2022-08-30T14:17:36.215Z,41.50
2022-08-30T14:20:04.260Z,42.70
2022-08-30T14:22:33.975Z,42.50
2022-08-30T14:25:05.654Z,43.20
2022-08-30T14:27:35.994Z,41.70
2022-08-30T14:30:09.492Z,44.70
2022-08-30T14:32:45.107Z,41.90
2022-08-30T14:35:15.744Z,44.30
2022-08-30T14:40:45.782Z,40.90
2022-08-30T14:44:04.487Z,42.20
2022-08-30T14:47:29.821Z,41.90
2022-08-30T14:50:05.006Z,40.90
2022-08-30T14:52:39.237Z,43.40
2022-08-30T14:55:11.691Z,42.70
2022-08-30T14:57:59.768Z,42.30
2022-08-30T15:00:38.708Z,42.90
2022-08-30T15:03:12.783Z,42.50
2022-08-30T15:09:48.550Z,41.70
2022-08-30T15:12:27.909Z,45.30
2022-08-30T15:14:56.774Z,44.80
2022-08-30T15:17:31.023Z,45.40
2022-08-30T15:20:08.565Z,45.10
2022-08-30T15:22:47.095Z,43.40
2022-08-30T15:25:18.456Z,42.50
2022-08-30T15:27:46.093Z,45.00
2022-08-30T15:30:20.381Z,42.90
2022-08-30T15:32:48.073Z,45.30
2022-08-30T15:35:16.276Z,43.10
2022-08-30T15:37:44.041Z,45.80
2022-08-30T15:40:11.937Z,41.70
2022-08-30T15:42:42.940Z,44.40
2022-08-30T15:45:10.818Z,44.10
2022-08-30T15:47:38.718Z,41.80
2022-08-30T15:50:16.467Z,43.80
2022-08-30T15:52:46.867Z,42.60
2022-08-30T15:55:17.055Z,45.80
2022-08-30T15:57:56.781Z,43.60
2022-08-30T16:00:32.506Z,45.40
2022-08-30T16:03:00.180Z,45.30
2022-08-30T16:05:29.396Z,45.00
2022-08-30T16:07:56.988Z,42.80
2022-08-30T16:10:24.821Z,45.10
2022-08-30T16:13:01.653Z,45.00
2022-08-30T16:15:30.825Z,46.00
2022-08-30T16:18:05.513Z,44.80
2022-08-30T16:21:05.108Z,43.90
2022-08-30T16:23:41.322Z,45.80
2022-08-30T16:26:36.096Z,43.20
2022-08-30T16:29:08.916Z,44.20
2022-08-30T16:31:44.547Z,42.50
2022-08-30T16:34:43.972Z,44.00
2022-08-30T16:37:18.475Z,44.00
2022-08-30T16:40:30.894Z,46.00
2022-08-30T16:43:00.676Z,43.50
2022-08-30T16:50:53.887Z,42.10
2022-08-30T16:53:33.851Z,44.70
2022-08-30T17:05:47.556Z,43.00
2022-08-30T17:11:35.209Z,48.00
2022-08-30T17:14:55.019Z,44.90
2022-08-30T17:17:47.586Z,48.40
2022-08-30T17:25:00.460Z,45.20
2022-08-30T17:28:18.347Z,43.60
2022-08-30T17:30:48.622Z,48.40
2022-08-30T17:33:29.604Z,46.10
2022-08-30T17:41:07.466Z,45.20
2022-08-30T17:43:39.612Z,45.40
2022-08-30T17:46:45.808Z,45.10
2022-08-30T17:58:08.869Z,44.60
2022-08-30T18:04:59.140Z,48.80
2022-08-30T18:08:02.672Z,44.30
2022-08-30T18:18:47.499Z,45.40
2022-08-30T18:21:31.258Z,49.20
2022-08-30T18:24:09.686Z,49.40
2022-08-30T18:35:16.267Z,45.70
2022-08-30T18:38:18.821Z,45.40
2022-08-30T18:45:14.994Z,47.50
2022-08-30T18:48:13.616Z,50.60
2022-08-30T18:51:06.930Z,51.60
2022-08-30T18:53:45.226Z,50.00
2022-08-30T19:00:25.889Z,48.40
2022-08-30T19:02:53.655Z,50.70
2022-08-30T19:05:24.472Z,50.80
2022-08-30T19:07:56.629Z,52.10
2022-08-30T19:11:08.273Z,50.80
2022-08-30T19:17:29.653Z,51.80
2022-08-30T19:20:20.985Z,52.60
2022-08-30T19:23:09.324Z,52.80
2022-08-30T19:25:43.889Z,56.50
2022-08-30T19:28:14.734Z,55.90
2022-08-30T19:30:46.440Z,58.40
2022-08-30T19:33:22.333Z,58.70
2022-08-30T19:39:52.565Z,57.20
2022-08-30T19:42:46.085Z,56.90
2022-08-30T19:48:43.237Z,57.90
2022-08-30T19:51:25.088Z,58.60
2022-08-30T19:54:07.799Z,59.90
2022-08-30T19:56:48.169Z,59.50
2022-08-30T19:59:35.692Z,61.10
2022-08-30T20:02:24.481Z,57.80
2022-08-30T20:16:37.633Z,60.70
2022-08-30T20:19:16.190Z,59.00
2022-08-30T20:21:50.189Z,59.50
2022-08-30T20:24:27.954Z,63.30
2022-08-30T20:27:01.083Z,65.00
2022-08-30T20:29:34.484Z,63.20
2022-08-30T20:32:09.659Z,61.90
2022-08-30T20:34:46.009Z,63.80
2022-08-30T20:37:59.270Z,60.90
2022-08-30T20:40:28.876Z,61.60
2022-08-30T20:43:17.033Z,64.80
2022-08-30T20:45:45.673Z,61.70
2022-08-30T20:48:19.382Z,63.30
2022-08-30T20:50:53.688Z,61.50
2022-08-30T20:53:23.730Z,66.20
2022-08-30T20:55:53.920Z,64.60
2022-08-30T21:04:07.045Z,60.80
2022-08-30T22:06:55.615Z,63.10
2022-08-30T22:26:23.892Z,64.50
2022-08-30T22:30:32.716Z,63.60
2022-08-30T22:33:06.317Z,64.20
2022-08-30T23:10:09.653Z,64.30
2022-08-30T23:27:59.639Z,64.40
